createdAt,value
2022-10-25T00:01:43.019Z,7.55
2022-10-25T00:04:11.354Z,6.97
2022-10-25T00:06:40.729Z,7.53
2022-10-25T00:09:08.906Z,7.57
2022-10-25T00:11:36.979Z,8.57
2022-10-25T00:14:07.475Z,8.27
2022-10-25T00:16:37.812Z,8.52
2022-10-25T00:19:06.487Z,7.65
2022-10-25T00:21:34.658Z,8.25
2022-10-25T00:24:04.881Z,8.30
2022-10-25T00:26:32.884Z,7.93
2022-10-25T00:29:01.961Z,8.82
2022-10-25T00:31:29.958Z,8.85
2022-10-25T00:33:57.949Z,9.40
2022-10-25T00:36:27.645Z,8.75
2022-10-25T00:38:58.170Z,9.25
2022-10-25T00:41:29.523Z,9.48
2022-10-25T00:44:18.374Z,9.63
2022-10-25T00:46:46.815Z,9.23
2022-10-25T00:49:18.837Z,9.98
2022-10-25T00:51:50.768Z,10.10
2022-10-25T00:54:24.353Z,10.23
2022-10-25T00:56:55.877Z,10.70
2022-10-25T00:59:28.122Z,10.35
2022-10-25T01:01:57.605Z,10.80
2022-10-25T01:04:29.982Z,10.95
2022-10-25T01:06:58.696Z,11.45
2022-10-25T01:09:29.467Z,11.20
2022-10-25T01:11:59.187Z,11.32
2022-10-25T01:14:28.276Z,12.10
2022-10-25T01:17:06.127Z,11.48
2022-10-25T01:19:48.044Z,12.77
2022-10-25T01:22:24.033Z,12.40
2022-10-25T01:25:26.372Z,12.48
2022-10-25T01:28:07.834Z,13.75
2022-10-25T01:31:04.870Z,14.05
2022-10-25T01:33:38.324Z,13.80
2022-10-25T01:36:15.428Z,14.63
2022-10-25T01:38:48.970Z,13.90
2022-10-25T01:41:24.166Z,14.25
2022-10-25T01:44:07.474Z,14.95
2022-10-25T01:46:44.499Z,15.30
2022-10-25T01:49:17.576Z,15.15
2022-10-25T01:51:45.632Z,15.93
2022-10-25T01:54:19.725Z,15.75
2022-10-25T01:56:56.593Z,16.15
2022-10-25T01:59:40.517Z,16.92
2022-10-25T02:02:16.522Z,17.50
2022-10-25T02:04:51.465Z,16.83
2022-10-25T02:07:25.876Z,17.90
2022-10-25T02:10:03.870Z,17.77
2022-10-25T02:12:38.198Z,17.58
2022-10-25T02:15:11.147Z,17.77
2022-10-25T02:17:45.882Z,18.05
2022-10-25T02:20:18.533Z,17.27
2022-10-25T02:22:47.798Z,17.48
2022-10-25T02:25:16.910Z,16.17
2022-10-25T02:27:46.544Z,17.63
2022-10-25T02:30:14.886Z,16.70
2022-10-25T02:32:44.362Z,16.45
2022-10-25T02:35:15.647Z,16.23
2022-10-25T02:37:44.157Z,16.55
2022-10-25T02:40:13.353Z,16.90
2022-10-25T02:42:41.541Z,17.17
2022-10-25T02:45:10.462Z,16.17
2022-10-25T02:47:38.694Z,15.57
2022-10-25T02:50:08.689Z,16.63
2022-10-25T02:52:36.756Z,16.35
2022-10-25T02:55:05.318Z,15.57
2022-10-25T02:57:34.744Z,16.35
2022-10-25T03:00:02.890Z,15.85
2022-10-25T03:02:30.996Z,16.60
2022-10-25T03:04:58.969Z,16.92
2022-10-25T03:07:28.430Z,15.48
2022-10-25T03:09:56.381Z,15.80
2022-10-25T03:12:24.468Z,16.23
2022-10-25T03:14:52.499Z,15.50
2022-10-25T03:17:20.519Z,15.93
2022-10-25T03:19:48.498Z,15.40
2022-10-25T03:22:16.518Z,14.63
2022-10-25T03:24:45.950Z,15.23
2022-10-25T03:27:13.961Z,15.35
2022-10-25T03:29:41.930Z,15.13
2022-10-25T03:32:09.942Z,16.02
2022-10-25T03:34:37.911Z,14.75
2022-10-25T03:37:05.872Z,14.63
2022-10-25T03:39:34.103Z,15.65
2022-10-25T03:42:03.430Z,15.93
2022-10-25T03:44:31.450Z,15.10
2022-10-25T03:46:59.444Z,14.50
2022-10-25T03:49:27.458Z,15.75
2022-10-25T03:51:57.917Z,14.65
2022-10-25T03:54:29.320Z,14.93
2022-10-25T03:56:57.592Z,14.95
2022-10-25T03:59:26.981Z,14.40
2022-10-25T04:01:55.245Z,14.43
2022-10-25T04:04:23.291Z,15.05
2022-10-25T04:06:51.325Z,14.10
2022-10-25T04:09:19.510Z,13.68
2022-10-25T04:11:47.529Z,13.48
2022-10-25T04:14:15.583Z,14.38
2022-10-25T04:16:44.969Z,13.68
2022-10-25T04:19:13.058Z,13.15
2022-10-25T04:21:41.270Z,12.93
2022-10-25T04:24:09.798Z,13.77
2022-10-25T04:26:37.864Z,13.30
2022-10-25T04:29:06.966Z,12.88
2022-10-25T04:31:35.048Z,14.15
2022-10-25T04:34:04.402Z,13.38
2022-10-25T04:36:32.888Z,14.05
2022-10-25T04:39:00.923Z,14.02
2022-10-25T04:41:28.934Z,13.32
2022-10-25T04:43:56.957Z,13.55
2022-10-25T04:46:25.037Z,13.32
2022-10-25T04:48:53.046Z,13.35
2022-10-25T04:51:22.405Z,13.95
2022-10-25T04:53:50.422Z,13.35
2022-10-25T04:56:18.414Z,12.50
2022-10-25T04:58:46.438Z,11.75
2022-10-25T05:01:16.027Z,13.00
2022-10-25T05:03:44.297Z,12.63
2022-10-25T05:06:14.496Z,12.40
2022-10-25T05:08:46.106Z,12.82
2022-10-25T05:11:15.860Z,12.65
2022-10-25T05:13:44.966Z,12.27
2022-10-25T05:16:17.261Z,11.95
2022-10-25T05:18:46.361Z,12.43
2022-10-25T05:21:15.661Z,12.48
2022-10-25T05:23:45.540Z,12.65
2022-10-25T05:26:15.523Z,11.95
2022-10-25T05:28:45.133Z,12.55
2022-10-25T05:31:15.288Z,11.85
2022-10-25T05:33:45.303Z,12.15
2022-10-25T05:36:14.265Z,11.60
2022-10-25T05:38:43.911Z,12.10
2022-10-25T05:41:13.468Z,12.38
2022-10-25T05:43:42.104Z,12.30
2022-10-25T05:46:12.602Z,12.40
2022-10-25T05:48:45.813Z,13.27
2022-10-25T05:51:32.234Z,12.60
2022-10-25T05:54:04.867Z,11.77
2022-10-25T05:56:35.491Z,12.65
2022-10-25T05:59:07.603Z,12.80
2022-10-25T06:01:36.579Z,12.68
2022-10-25T06:04:04.677Z,11.95
2022-10-25T06:06:32.939Z,12.38
2022-10-25T06:09:02.701Z,12.55
2022-10-25T06:11:31.537Z,12.95
2022-10-25T06:13:59.608Z,12.07
2022-10-25T06:16:27.624Z,12.48
2022-10-25T06:18:56.003Z,12.57
2022-10-25T06:21:25.478Z,12.75
2022-10-25T06:23:54.374Z,12.88
2022-10-25T06:26:25.230Z,13.02
2022-10-25T06:28:54.506Z,13.25
2022-10-25T06:31:22.702Z,13.82
2022-10-25T06:33:50.717Z,13.27
2022-10-25T06:36:20.301Z,13.70
2022-10-25T06:38:49.418Z,12.93
2022-10-25T06:41:19.858Z,13.30
2022-10-25T06:43:49.917Z,13.25
2022-10-25T06:46:22.566Z,12.32
2022-10-25T06:48:51.076Z,14.43
2022-10-25T06:51:19.350Z,13.25
2022-10-25T06:53:47.468Z,13.57
2022-10-25T06:56:16.094Z,13.75
2022-10-25T06:58:44.765Z,13.07
2022-10-25T07:01:15.872Z,14.00
2022-10-25T07:03:46.045Z,14.50
2022-10-25T07:06:16.134Z,13.52
2022-10-25T07:08:45.758Z,13.23
2022-10-25T07:11:16.031Z,13.38
2022-10-25T07:13:44.078Z,12.90
2022-10-25T07:16:15.237Z,12.10
2022-10-25T07:18:43.782Z,12.15
2022-10-25T07:21:13.828Z,11.52
2022-10-25T07:23:43.156Z,11.85
2022-10-25T07:26:12.748Z,11.35
2022-10-25T07:28:41.272Z,10.65
2022-10-25T07:31:09.360Z,9.85
2022-10-25T07:33:38.734Z,9.80
2022-10-25T07:36:11.265Z,10.07
2022-10-25T07:38:39.870Z,9.98
2022-10-25T07:41:08.869Z,9.10
2022-10-25T07:43:37.055Z,8.52
2022-10-25T07:46:05.914Z,9.30
2022-10-25T07:48:34.401Z,8.88
2022-10-25T07:51:06.113Z,9.13
2022-10-25T07:53:34.130Z,9.32
2022-10-25T07:56:02.276Z,9.20
2022-10-25T07:58:30.522Z,9.23
2022-10-25T08:01:03.208Z,9.23
2022-10-25T08:03:31.826Z,8.63
2022-10-25T08:06:00.136Z,8.75
2022-10-25T08:08:29.793Z,9.27
2022-10-25T08:10:59.539Z,9.20
2022-10-25T08:13:27.574Z,8.50
2022-10-25T08:15:57.254Z,9.02
2022-10-25T08:18:25.354Z,9.13
2022-10-25T08:21:02.779Z,9.05
2022-10-25T08:23:33.606Z,9.55
2022-10-25T08:26:01.801Z,8.68
2022-10-25T08:28:31.321Z,8.75
2022-10-25T08:31:01.069Z,8.50
2022-10-25T08:33:30.118Z,7.68
2022-10-25T08:36:01.181Z,8.57
2022-10-25T08:38:29.356Z,8.55
2022-10-25T08:41:10.065Z,8.43
2022-10-25T08:44:08.740Z,7.80
2022-10-25T08:46:41.940Z,7.32
2022-10-25T08:49:20.409Z,7.03
2022-10-25T08:51:50.668Z,7.93
2022-10-25T08:54:29.570Z,6.60
2022-10-25T08:57:15.909Z,6.90
2022-10-25T08:59:48.329Z,6.70
2022-10-25T09:02:26.367Z,7.03
2022-10-25T09:04:55.761Z,7.72
2022-10-25T09:07:50.451Z,7.05
2022-10-25T09:10:28.613Z,6.53
2022-10-25T09:13:08.435Z,6.18
2022-10-25T09:15:54.663Z,6.38
2022-10-25T09:18:32.810Z,7.07
2022-10-25T09:21:07.670Z,6.47
2022-10-25T09:23:37.905Z,6.43
2022-10-25T09:26:13.565Z,6.53
2022-10-25T09:28:52.505Z,5.70
2022-10-25T09:31:24.738Z,5.72
2022-10-25T09:34:04.077Z,5.68
2022-10-25T09:36:39.296Z,6.40
2022-10-25T09:39:16.725Z,5.95
2022-10-25T09:41:48.945Z,6.22
2022-10-25T09:44:27.197Z,5.95
2022-10-25T09:46:59.473Z,6.38
2022-10-25T09:49:33.261Z,6.03
2022-10-25T09:52:11.510Z,6.50
2022-10-25T09:54:43.127Z,5.68
2022-10-25T09:57:11.138Z,5.82
2022-10-25T09:59:40.565Z,5.95
2022-10-25T10:02:16.115Z,5.63
2022-10-25T10:04:44.169Z,5.40
2022-10-25T10:07:19.348Z,6.53
2022-10-25T10:09:51.874Z,5.93
2022-10-25T10:12:24.824Z,6.10
2022-10-25T10:14:59.834Z,5.55
2022-10-25T10:17:30.685Z,5.97
2022-10-25T10:20:11.430Z,5.82
2022-10-25T10:22:45.505Z,4.97
2022-10-25T10:25:18.456Z,6.20
2022-10-25T10:27:48.801Z,5.57
2022-10-25T10:30:28.791Z,5.57
2022-10-25T10:33:00.413Z,5.18
2022-10-25T10:35:33.730Z,5.18
2022-10-25T10:38:24.720Z,5.85
2022-10-25T10:40:55.831Z,5.88
2022-10-25T10:43:32.640Z,5.43
2022-10-25T10:46:09.648Z,5.60
2022-10-25T10:48:43.261Z,5.13
2022-10-25T10:51:25.514Z,4.63
2022-10-25T10:54:25.271Z,4.82
2022-10-25T10:57:01.526Z,4.65
2022-10-25T10:59:37.524Z,3.95
2022-10-25T11:02:25.540Z,3.90
2022-10-25T11:04:55.874Z,3.97
2022-10-25T11:07:35.240Z,3.65
2022-10-25T11:10:24.871Z,3.47
2022-10-25T11:13:14.109Z,3.15
2022-10-25T11:16:10.225Z,3.50
2022-10-25T11:18:50.949Z,3.40
2022-10-25T11:21:36.382Z,3.97
2022-10-25T11:24:14.829Z,3.30
2022-10-25T11:26:54.286Z,3.38
2022-10-25T11:29:41.675Z,3.53
2022-10-25T11:32:26.627Z,3.70
2022-10-25T11:35:06.590Z,3.45
2022-10-25T11:37:42.123Z,3.22
2022-10-25T11:40:16.563Z,3.95
2022-10-25T11:42:58.682Z,3.83
2022-10-25T11:45:35.726Z,3.25
2022-10-25T11:48:23.997Z,3.25
2022-10-25T11:51:00.102Z,3.25
2022-10-25T11:53:44.237Z,3.20
2022-10-25T11:56:22.134Z,3.42
2022-10-25T11:58:59.309Z,3.05
2022-10-25T12:01:45.124Z,2.88
2022-10-25T12:04:29.510Z,2.97
2022-10-25T12:07:07.458Z,3.10
2022-10-25T12:09:43.582Z,2.63
2022-10-25T12:12:15.766Z,2.55
2022-10-25T12:14:48.614Z,2.60
2022-10-25T12:17:32.278Z,2.80
2022-10-25T12:20:03.142Z,2.70
2022-10-25T12:22:38.250Z,2.85
2022-10-25T12:25:14.887Z,2.60
2022-10-25T12:27:48.086Z,2.65
2022-10-25T12:30:18.554Z,2.42
2022-10-25T12:32:52.517Z,2.40
2022-10-25T12:35:24.178Z,2.78
2022-10-25T12:37:58.879Z,2.70
2022-10-25T12:40:29.680Z,2.90
2022-10-25T12:43:01.022Z,2.35
2022-10-25T12:45:47.710Z,2.28
2022-10-25T12:48:31.487Z,2.40
2022-10-25T12:51:20.972Z,2.55
2022-10-25T12:54:10.429Z,2.08
2022-10-25T12:56:49.711Z,2.17
2022-10-25T12:59:36.849Z,2.40
2022-10-25T13:02:20.190Z,2.58
2022-10-25T13:05:12.640Z,2.60
2022-10-25T13:07:40.749Z,3.08
2022-10-25T13:10:19.091Z,2.85
2022-10-25T13:13:00.084Z,3.00
2022-10-25T13:15:40.276Z,2.42
2022-10-25T13:18:27.194Z,2.65
2022-10-25T13:20:55.482Z,2.88
2022-10-25T13:24:03.689Z,2.88
2022-10-25T13:27:11.095Z,2.80
2022-10-25T13:30:23.655Z,2.65
2022-10-25T13:33:29.413Z,2.53
2022-10-25T13:36:02.791Z,2.50
2022-10-25T13:38:38.871Z,2.95
2022-10-25T13:41:12.881Z,2.83
2022-10-25T13:44:03.641Z,3.00
2022-10-25T13:46:35.903Z,2.88
2022-10-25T13:49:20.425Z,3.28
2022-10-25T13:51:48.822Z,2.65
2022-10-25T13:54:17.548Z,2.50
2022-10-25T13:56:53.673Z,2.80
2022-10-25T14:00:02.571Z,2.55
2022-10-25T14:03:05.151Z,2.70
2022-10-25T14:06:13.017Z,2.80
2022-10-25T14:08:52.391Z,3.55
2022-10-25T14:11:24.713Z,3.15
2022-10-25T14:13:56.742Z,3.05
2022-10-25T14:16:32.250Z,3.20
2022-10-25T14:19:06.252Z,3.08
2022-10-25T14:21:34.851Z,2.80
2022-10-25T14:24:12.153Z,2.70
2022-10-25T14:26:51.959Z,2.55
2022-10-25T14:29:23.215Z,2.63
2022-10-25T14:31:53.490Z,2.33
2022-10-25T14:34:23.405Z,2.45
2022-10-25T14:36:53.243Z,2.60
2022-10-25T14:39:24.194Z,2.80
2022-10-25T14:41:54.435Z,2.40
2022-10-25T14:44:25.557Z,2.85
2022-10-25T14:46:56.441Z,2.90
2022-10-25T14:49:25.447Z,2.70
2022-10-25T14:51:56.514Z,2.47
2022-10-25T14:54:28.216Z,2.25
2022-10-25T14:56:59.090Z,2.65
2022-10-25T14:59:30.068Z,3.03
2022-10-25T15:02:02.554Z,2.70
2022-10-25T15:04:33.890Z,2.92
2022-10-25T15:07:03.507Z,2.47
2022-10-25T15:09:49.023Z,2.95
2022-10-25T15:12:20.499Z,2.97
2022-10-25T15:14:48.834Z,2.47
2022-10-25T15:17:25.391Z,2.92
2022-10-25T15:20:06.428Z,2.38
2022-10-25T15:22:43.197Z,3.30
2022-10-25T15:25:30.202Z,2.65
2022-10-25T15:28:09.195Z,3.30
2022-10-25T15:30:39.374Z,3.22
2022-10-25T15:33:12.685Z,3.15
2022-10-25T15:35:47.434Z,3.22
2022-10-25T15:38:17.383Z,3.25
2022-10-25T15:40:45.886Z,3.40
2022-10-25T15:43:13.981Z,3.65
2022-10-25T15:45:42.651Z,3.70
2022-10-25T15:48:15.735Z,3.42
2022-10-25T15:50:47.817Z,3.53
2022-10-25T15:53:15.831Z,4.20
2022-10-25T15:55:44.291Z,3.63
2022-10-25T15:58:12.279Z,3.63
2022-10-25T16:00:40.519Z,3.28
2022-10-25T16:03:09.486Z,3.50
2022-10-25T16:05:39.722Z,3.58
2022-10-25T16:08:08.647Z,3.55
2022-10-25T16:10:37.671Z,3.13
2022-10-25T16:13:07.867Z,3.67
2022-10-25T16:15:35.846Z,3.75
2022-10-25T16:18:04.191Z,3.70
2022-10-25T16:20:32.781Z,4.00
2022-10-25T16:23:02.185Z,4.32
2022-10-25T16:25:33.070Z,3.58
2022-10-25T16:28:01.970Z,3.72
2022-10-25T16:30:33.989Z,3.67
2022-10-25T16:33:02.126Z,4.32
2022-10-25T16:35:30.122Z,4.32
2022-10-25T16:37:58.416Z,4.30
2022-10-25T16:40:28.937Z,4.10
2022-10-25T16:42:58.341Z,4.95
2022-10-25T16:45:29.046Z,5.03
2022-10-25T16:47:57.968Z,5.30
2022-10-25T16:50:27.015Z,8.88
2022-10-25T16:52:57.506Z,8.48
2022-10-25T16:55:28.799Z,10.13
2022-10-25T16:57:56.927Z,9.50
2022-10-25T17:00:25.202Z,8.20
2022-10-25T17:02:53.225Z,7.50
2022-10-25T17:05:23.441Z,6.63
2022-10-25T17:07:52.218Z,6.28
2022-10-25T17:10:22.138Z,6.22
2022-10-25T17:12:53.314Z,5.78
2022-10-25T17:15:22.387Z,5.40
2022-10-25T17:17:50.781Z,6.03
2022-10-25T17:20:19.080Z,6.57
2022-10-25T17:22:48.795Z,7.15
2022-10-25T17:25:17.418Z,6.25
2022-10-25T17:27:48.076Z,6.75
2022-10-25T17:30:18.263Z,7.15
2022-10-25T17:32:46.346Z,6.90
2022-10-25T17:35:14.549Z,7.28
2022-10-25T17:37:43.988Z,7.20
2022-10-25T17:40:13.763Z,7.25
2022-10-25T17:42:41.814Z,7.28
2022-10-25T17:45:10.787Z,7.35
2022-10-25T17:47:42.564Z,7.72
2022-10-25T17:50:12.859Z,7.50
2022-10-25T17:52:42.315Z,7.80
2022-10-25T17:55:11.785Z,8.05
2022-10-25T17:57:39.785Z,8.57
2022-10-25T18:00:09.103Z,9.27
2022-10-25T18:02:50.555Z,8.77
2022-10-25T18:05:20.983Z,8.65
2022-10-25T18:07:50.263Z,9.10
2022-10-25T18:10:18.503Z,9.25
2022-10-25T18:12:47.019Z,8.90
2022-10-25T18:15:15.245Z,10.18
2022-10-25T18:17:46.302Z,9.43
2022-10-25T18:20:16.305Z,9.07
2022-10-25T18:22:44.352Z,9.65
2022-10-25T18:25:12.737Z,9.57
2022-10-25T18:27:40.734Z,9.57
2022-10-25T18:30:10.226Z,10.65
2022-10-25T18:32:38.199Z,9.13
2022-10-25T18:35:06.746Z,10.88
2022-10-25T18:37:36.110Z,10.82
2022-10-25T18:40:04.393Z,9.95
2022-10-25T18:42:32.378Z,10.90
2022-10-25T18:45:00.408Z,10.73
2022-10-25T18:47:28.498Z,11.93
2022-10-25T18:49:56.531Z,11.00
2022-10-25T18:52:24.729Z,10.18
2022-10-25T18:54:54.496Z,11.15
2022-10-25T18:57:22.502Z,10.25
2022-10-25T18:59:50.538Z,10.00
2022-10-25T19:02:18.647Z,11.05
2022-10-25T19:04:46.685Z,10.25
2022-10-25T19:07:14.665Z,10.68
2022-10-25T19:09:42.691Z,10.55
2022-10-25T19:12:12.075Z,10.48
2022-10-25T19:14:40.111Z,10.15
2022-10-25T19:17:09.298Z,9.88
2022-10-25T19:19:37.251Z,9.70
2022-10-25T19:22:05.250Z,9.85
2022-10-25T19:24:33.631Z,9.63
2022-10-25T19:27:01.626Z,9.63
2022-10-25T19:29:30.998Z,9.82
2022-10-25T19:31:58.973Z,9.63
2022-10-25T19:34:27.102Z,10.38
2022-10-25T19:36:56.713Z,9.57
2022-10-25T19:39:25.505Z,9.30
2022-10-25T19:41:53.489Z,10.05
2022-10-25T19:44:21.513Z,9.85
2022-10-25T19:46:51.682Z,10.00
2022-10-25T19:49:19.705Z,9.48
2022-10-25T19:51:47.739Z,8.80
2022-10-25T19:54:15.854Z,8.65
2022-10-25T19:56:43.844Z,8.18
2022-10-25T19:59:12.422Z,9.02
2022-10-25T20:01:40.612Z,8.50
2022-10-25T20:04:11.342Z,8.45
2022-10-25T20:06:39.341Z,8.07
2022-10-25T20:09:09.878Z,8.10
2022-10-25T20:11:38.012Z,7.63
2022-10-25T20:14:06.052Z,7.93
2022-10-25T20:16:34.183Z,7.88
2022-10-25T20:19:03.407Z,8.13
2022-10-25T20:21:35.138Z,7.88
2022-10-25T20:24:05.346Z,9.10
2022-10-25T20:26:35.316Z,7.55
2022-10-25T20:29:05.353Z,8.38
2022-10-25T20:31:34.681Z,8.00
2022-10-25T20:34:03.204Z,8.52
2022-10-25T20:36:32.809Z,9.18
2022-10-25T20:39:00.814Z,8.35
2022-10-25T20:41:30.281Z,7.90
2022-10-25T20:44:00.336Z,8.05
2022-10-25T20:46:29.876Z,8.43
2022-10-25T20:48:58.454Z,8.60
2022-10-25T20:51:27.150Z,9.60
2022-10-25T20:53:56.957Z,9.45
2022-10-25T20:56:25.713Z,8.82
2022-10-25T20:58:53.749Z,9.77
2022-10-25T21:01:21.870Z,9.32
2022-10-25T21:03:49.977Z,9.18
2022-10-25T21:06:17.990Z,9.93
2022-10-25T21:08:46.011Z,9.52
2022-10-25T21:11:15.401Z,9.05
2022-10-25T21:13:43.462Z,9.07
2022-10-25T21:16:13.080Z,9.13
2022-10-25T21:18:41.414Z,9.63
2022-10-25T21:21:11.882Z,9.40
2022-10-25T21:23:39.982Z,10.18
2022-10-25T21:26:09.976Z,9.95
2022-10-25T21:28:41.213Z,8.65
2022-10-25T21:31:11.934Z,9.23
2022-10-25T21:33:41.751Z,9.10
2022-10-25T21:36:12.408Z,9.60
2022-10-25T21:38:40.819Z,9.25
2022-10-25T21:41:10.498Z,8.85
2022-10-25T21:43:43.783Z,10.27
2022-10-25T21:46:12.618Z,9.75
2022-10-25T21:48:40.674Z,9.45
2022-10-25T21:51:09.331Z,10.10
2022-10-25T21:53:37.357Z,9.18
2022-10-25T21:56:07.622Z,10.95
2022-10-25T21:58:35.673Z,11.20
2022-10-25T22:01:08.546Z,10.02
2022-10-25T22:03:36.634Z,10.30
2022-10-25T22:06:06.715Z,10.65
2022-10-25T22:08:34.870Z,10.30
2022-10-25T22:11:04.883Z,9.93
2022-10-25T22:13:32.963Z,9.95
2022-10-25T22:16:02.949Z,10.35
2022-10-25T22:18:32.736Z,9.82
2022-10-25T22:21:02.914Z,10.38
2022-10-25T22:23:32.403Z,10.63
2022-10-25T22:26:02.792Z,11.13
2022-10-25T22:28:31.179Z,10.73
2022-10-25T22:31:01.936Z,10.65
2022-10-25T22:33:30.676Z,10.60
2022-10-25T22:38:38.359Z,10.50
2022-10-25T22:41:08.508Z,10.27
2022-10-25T22:43:37.450Z,10.70
2022-10-25T22:46:07.399Z,10.18
2022-10-25T22:48:37.143Z,10.68
2022-10-25T22:51:07.253Z,9.68
2022-10-25T22:53:36.093Z,10.30
2022-10-25T22:56:06.857Z,10.60
2022-10-25T22:58:36.398Z,10.45
2022-10-25T23:01:06.625Z,10.95
2022-10-25T23:03:34.781Z,11.10
2022-10-25T23:06:03.473Z,9.82
2022-10-25T23:08:33.028Z,10.63
2022-10-25T23:11:02.981Z,10.10
2022-10-25T23:13:32.745Z,10.75
2022-10-25T23:16:01.276Z,10.23
2022-10-25T23:18:29.370Z,10.15
2022-10-25T23:20:59.165Z,10.60
2022-10-25T23:23:28.125Z,9.90
2022-10-25T23:26:00.546Z,10.55
2022-10-25T23:28:31.140Z,10.90
2022-10-25T23:31:05.286Z,10.30
2022-10-25T23:33:33.481Z,10.10
2022-10-25T23:36:05.488Z,9.98
2022-10-25T23:38:33.559Z,11.35
2022-10-25T23:41:02.922Z,10.88
2022-10-25T23:43:31.483Z,10.95
2022-10-25T23:45:59.798Z,11.20
2022-10-25T23:48:27.929Z,11.50
2022-10-25T23:50:57.467Z,10.63
2022-10-25T23:53:26.181Z,11.38
2022-10-25T23:55:55.301Z,11.45
2022-10-25T23:58:25.105Z,10.82
